Time;durP1;ratioP1;P1;durP2;ratioP2;P2;SDS_P1;SDS_P2;PMS_P1;PMS_P2;Temp;Humidity;BMP_temperature;BMP_pressure;BME280_temperature;BME280_humidity;BME280_pressure;Samples;Min_cycle;Max_cycle;Signal;HPM_P1;HPM_P2
2024/03/14 00:01:36;;;;;;;229.65;148.40;;;;;;;;;;5009744;28;20132;-67
2024/03/14 00:04:03;;;;;;;222.65;145.57;;;;;;;;;;5010445;28;20401;-67
2024/03/14 00:06:30;;;;;;;218.90;143.57;;;;;;;;;;5010622;28;20022;-67
2024/03/14 00:08:57;;;;;;;225.27;147.50;;;;;;;;;;5010645;28;20021;-67
2024/03/14 00:11:23;;;;;;;219.38;142.15;;;;;;;;;;5009717;28;20056;-67
2024/03/14 00:13:49;;;;;;;224.23;143.98;;;;;;;;;;5010389;28;20049;-68
2024/03/14 00:16:15;;;;;;;217.88;143.30;;;;;;;;;;5010425;28;20026;-67
2024/03/14 00:18:41;;;;;;;225.65;146.02;;;;;;;;;;5010574;28;20104;-67
2024/03/14 00:21:09;;;;;;;221.10;143.40;;;;;;;;;;5009758;28;20033;-68
2024/03/14 00:23:36;;;;;;;222.88;146.05;;;;;;;;;;5010509;28;20028;-70
2024/03/14 00:26:03;;;;;;;221.68;144.15;;;;;;;;;;5011114;28;20022;-68
2024/03/14 00:28:30;;;;;;;223.05;144.68;;;;;;;;;;5010529;28;20072;-67
2024/03/14 00:30:58;;;;;;;219.20;140.50;;;;;;;;;;5009795;28;20026;-68
2024/03/14 00:33:24;;;;;;;222.98;143.40;;;;;;;;;;5010046;28;20129;-68
2024/03/14 00:35:50;;;;;;;212.13;139.15;;;;;;;;;;5010204;28;20173;-69
2024/03/14 00:38:16;;;;;;;213.45;136.02;;;;;;;;;;5010295;28;20556;-69
2024/03/14 00:40:43;;;;;;;214.75;139.07;;;;;;;;;;5008066;28;20113;-68
2024/03/14 00:43:09;;;;;;;211.27;137.43;;;;;;;;;;5008814;28;20033;-66
2024/03/14 00:45:36;;;;;;;220.45;144.02;;;;;;;;;;5009071;28;20660;-67
2024/03/14 00:48:02;;;;;;;207.30;137.20;;;;;;;;;;5009062;28;20018;-70
2024/03/14 00:50:28;;;;;;;207.85;136.60;;;;;;;;;;5007869;28;20021;-68
2024/03/14 00:52:54;;;;;;;201.02;134.07;;;;;;;;;;5008602;28;20030;-68
2024/03/14 00:55:20;;;;;;;201.82;134.30;;;;;;;;;;5008593;28;20029;-67
2024/03/14 00:57:46;;;;;;;205.48;132.95;;;;;;;;;;5009131;28;20022;-68
2024/03/14 01:00:13;;;;;;;207.70;135.02;;;;;;;;;;5009034;28;20643;-68
2024/03/14 01:02:39;;;;;;;201.80;132.70;;;;;;;;;;5008375;28;20026;-69
2024/03/14 01:05:05;;;;;;;201.00;133.35;;;;;;;;;;5008587;28;20025;-70
2024/03/14 01:07:32;;;;;;;202.43;131.85;;;;;;;;;;5010085;28;20018;-68
2024/03/14 01:09:58;;;;;;;192.15;129.05;;;;;;;;;;5009596;28;20018;-69
2024/03/14 01:12:24;;;;;;;205.93;131.73;;;;;;;;;;5013108;28;20038;-68
2024/03/14 01:14:50;;;;;;;186.55;127.28;;;;;;;;;;5013802;28;20167;-68
2024/03/14 01:17:16;;;;;;;198.15;130.85;;;;;;;;;;5013695;28;20030;-68
2024/03/14 01:19:42;;;;;;;194.07;128.45;;;;;;;;;;5013719;28;20018;-68
2024/03/14 01:22:08;;;;;;;192.02;125.45;;;;;;;;;;5012776;28;20021;-68
2024/03/14 01:24:37;;;;;;;203.02;130.70;;;;;;;;;;5013218;28;20149;-67
2024/03/14 01:27:03;;;;;;;188.82;127.20;;;;;;;;;;5013545;28;20374;-68
2024/03/14 01:29:29;;;;;;;187.88;124.93;;;;;;;;;;5013481;28;20432;-69
2024/03/14 01:31:55;;;;;;;189.77;126.80;;;;;;;;;;5012698;28;20030;-68
2024/03/14 01:34:22;;;;;;;185.57;121.90;;;;;;;;;;5013437;28;20032;-68
2024/03/14 01:36:48;;;;;;;190.43;125.32;;;;;;;;;;5012237;28;20512;-68
2024/03/14 01:39:14;;;;;;;185.55;123.28;;;;;;;;;;5013744;28;20029;-68
2024/03/14 01:41:41;;;;;;;191.88;123.28;;;;;;;;;;5014643;28;20052;-68
2024/03/14 01:44:07;;;;;;;182.68;121.80;;;;;;;;;;5014810;28;20073;-68
2024/03/14 01:46:33;;;;;;;178.63;120.15;;;;;;;;;;5045233;23;20045;-67
2024/03/14 01:49:00;;;;;;;187.30;122.82;;;;;;;;;;5033427;28;20033;-67
2024/03/14 01:51:28;;;;;;;181.68;122.85;;;;;;;;;;5032722;28;20029;-67
2024/03/14 01:53:57;;;;;;;176.98;118.88;;;;;;;;;;5033313;28;20029;-67
2024/03/14 01:56:23;;;;;;;182.00;121.28;;;;;;;;;;5033157;28;20036;-67
2024/03/14 01:58:53;;;;;;;174.02;117.72;;;;;;;;;;5033306;28;20021;-68
2024/03/14 02:01:20;;;;;;;174.90;116.72;;;;;;;;;;5032388;28;20029;-69
2024/03/14 02:03:51;;;;;;;172.55;117.00;;;;;;;;;;5033373;28;20017;-68
2024/03/14 02:06:25;;;;;;;176.02;116.30;;;;;;;;;;5033212;28;20067;-68
2024/03/14 02:08:51;;;;;;;173.35;116.22;;;;;;;;;;5033000;28;20030;-68
2024/03/14 02:11:18;;;;;;;174.32;118.35;;;;;;;;;;5031498;28;20445;-68
2024/03/14 02:13:45;;;;;;;166.27;112.88;;;;;;;;;;5032319;28;20314;-67
2024/03/14 02:16:11;;;;;;;172.63;115.07;;;;;;;;;;5032104;28;20052;-66
2024/03/14 02:18:37;;;;;;;167.68;113.10;;;;;;;;;;5032150;28;20366;-66
2024/03/14 02:21:02;;;;;;;162.40;109.50;;;;;;;;;;5030783;28;20056;-67
2024/03/14 02:23:29;;;;;;;162.27;107.93;;;;;;;;;;5031955;28;20477;-67
2024/03/14 02:25:55;;;;;;;169.20;108.32;;;;;;;;;;5032056;28;20052;-67
2024/03/14 02:28:22;;;;;;;169.52;111.13;;;;;;;;;;5032014;28;20049;-66
2024/03/14 02:30:48;;;;;;;165.55;107.75;;;;;;;;;;5031627;28;20022;-66
2024/03/14 02:33:14;;;;;;;163.38;107.47;;;;;;;;;;5031834;28;20037;-66
2024/03/14 02:35:40;;;;;;;156.35;105.43;;;;;;;;;;5031694;28;20157;-66
2024/03/14 02:38:07;;;;;;;159.88;106.63;;;;;;;;;;5031765;28;20734;-66
2024/03/14 02:40:33;;;;;;;161.23;104.45;;;;;;;;;;5031371;28;20574;-66
2024/03/14 02:43:00;;;;;;;157.68;104.32;;;;;;;;;;5031280;28;20026;-67
2024/03/14 02:45:26;;;;;;;153.77;101.95;;;;;;;;;;5031658;28;20500;-66
2024/03/14 02:47:52;;;;;;;163.07;104.75;;;;;;;;;;5031506;28;20029;-66
2024/03/14 02:50:18;;;;;;;157.50;104.93;;;;;;;;;;5031115;28;20017;-68
2024/03/14 02:52:46;;;;;;;154.90;101.80;;;;;;;;;;5030897;28;20100;-65
2024/03/14 02:55:12;;;;;;;148.68;100.78;;;;;;;;;;5031356;28;20030;-69
2024/03/14 02:57:39;;;;;;;155.18;101.47;;;;;;;;;;5031322;28;20101;-68
2024/03/14 03:00:14;;;;;;;151.38;99.55;;;;;;;;;;5031464;28;20028;-68
2024/03/14 03:02:41;;;;;;;153.07;97.93;;;;;;;;;;5030821;28;20031;-68
2024/03/14 03:05:07;;;;;;;150.65;97.85;;;;;;;;;;5031265;28;20025;-68
2024/03/14 03:07:34;;;;;;;152.65;101.30;;;;;;;;;;5031138;28;20026;-68
2024/03/14 03:10:00;;;;;;;150.27;99.32;;;;;;;;;;5030821;28;20026;-69
2024/03/14 03:12:26;;;;;;;143.50;95.88;;;;;;;;;;5030616;28;20524;-67
2024/03/14 03:14:52;;;;;;;146.10;97.10;;;;;;;;;;5031087;28;20068;-66
2024/03/14 03:17:18;;;;;;;144.15;94.03;;;;;;;;;;5030745;28;20044;-66
2024/03/14 03:19:45;;;;;;;144.70;97.03;;;;;;;;;;5032387;28;20025;-67
2024/03/14 03:22:11;;;;;;;139.30;91.75;;;;;;;;;;5030298;28;20029;-67
2024/03/14 03:24:37;;;;;;;152.90;96.18;;;;;;;;;;5013268;28;20021;-66
2024/03/14 03:27:08;;;;;;;140.38;93.10;;;;;;;;;;5030690;28;20025;-68
2024/03/14 03:29:34;;;;;;;142.33;92.87;;;;;;;;;;5030797;28;20029;-68
2024/03/14 03:31:59;;;;;;;134.55;91.97;;;;;;;;;;5030037;28;20256;-68
2024/03/14 03:34:27;;;;;;;144.70;90.13;;;;;;;;;;5030708;28;20580;-68
2024/03/14 03:36:56;;;;;;;133.93;89.50;;;;;;;;;;5030568;28;20035;-69
2024/03/14 03:39:25;;;;;;;134.75;87.22;;;;;;;;;;5030640;28;20025;-68
2024/03/14 03:41:52;;;;;;;138.82;89.50;;;;;;;;;;5012183;28;20056;-67
2024/03/14 03:44:20;;;;;;;131.05;86.80;;;;;;;;;;5030811;28;20022;-71
2024/03/14 03:46:46;;;;;;;131.25;86.97;;;;;;;;;;5030436;28;20521;-72
2024/03/14 03:49:12;;;;;;;142.63;87.18;;;;;;;;;;5030496;28;20053;-68
2024/03/14 03:51:39;;;;;;;128.13;84.55;;;;;;;;;;5029978;28;20108;-70
2024/03/14 03:54:05;;;;;;;134.55;86.15;;;;;;;;;;5030678;28;20044;-70
2024/03/14 03:56:31;;;;;;;133.85;84.47;;;;;;;;;;5012842;28;20056;-70
2024/03/14 03:58:58;;;;;;;128.20;81.40;;;;;;;;;;5030478;28;20068;-70
2024/03/14 04:01:24;;;;;;;122.00;81.38;;;;;;;;;;5029898;28;20511;-70
2024/03/14 04:03:51;;;;;;;120.85;82.70;;;;;;;;;;5030685;28;20100;-69
2024/03/14 04:06:17;;;;;;;120.00;79.88;;;;;;;;;;5030419;28;20029;-69
2024/03/14 04:08:47;;;;;;;125.75;81.13;;;;;;;;;;5030519;28;20030;-70
2024/03/14 04:11:15;;;;;;;121.88;80.80;;;;;;;;;;5029796;28;20049;-69
2024/03/14 04:13:41;;;;;;;115.47;76.85;;;;;;;;;;5030206;28;20033;-69
2024/03/14 04:16:07;;;;;;;121.38;80.72;;;;;;;;;;5030460;28;20022;-70
2024/03/14 04:18:34;;;;;;;118.35;78.18;;;;;;;;;;5030616;28;20030;-70
2024/03/14 04:21:02;;;;;;;122.47;79.57;;;;;;;;;;5029860;28;20025;-70
2024/03/14 04:23:28;;;;;;;121.35;79.03;;;;;;;;;;5030261;28;20511;-69
2024/03/14 04:25:54;;;;;;;120.90;77.38;;;;;;;;;;5030292;28;20146;-70
2024/03/14 04:28:23;;;;;;;113.93;75.35;;;;;;;;;;5030346;28;20021;-70
2024/03/14 04:30:50;;;;;;;113.00;74.22;;;;;;;;;;5029790;28;20508;-67
2024/03/14 04:33:17;;;;;;;107.60;73.25;;;;;;;;;;5030150;28;20040;-69
2024/03/14 04:35:44;;;;;;;108.50;71.18;;;;;;;;;;5030376;28;20072;-68
2024/03/14 04:38:09;;;;;;;110.60;74.20;;;;;;;;;;5030263;28;20072;-68
2024/03/14 04:40:35;;;;;;;108.78;71.80;;;;;;;;;;5029668;28;20034;-71
2024/03/14 04:43:04;;;;;;;112.57;73.18;;;;;;;;;;5029903;28;20029;-69
2024/03/14 04:45:30;;;;;;;108.20;71.78;;;;;;;;;;5032086;28;20067;-67
2024/03/14 04:47:56;;;;;;;106.55;70.93;;;;;;;;;;5033884;28;20037;-69
2024/03/14 04:50:22;;;;;;;106.70;71.40;;;;;;;;;;5033502;28;20094;-69
2024/03/14 04:52:54;;;;;;;104.60;70.38;;;;;;;;;;5033004;28;20040;-69
2024/03/14 04:55:20;;;;;;;107.40;71.35;;;;;;;;;;5033237;28;20048;-69
2024/03/14 04:57:46;;;;;;;108.80;70.75;;;;;;;;;;5033287;28;20029;-69
2024/03/14 05:02:45;;;;;;;104.05;67.72;;;;;;;;;;5032870;28;20564;-69
2024/03/14 05:05:11;;;;;;;97.57;65.13;;;;;;;;;;5033268;28;20132;-68
2024/03/14 05:07:37;;;;;;;100.80;67.00;;;;;;;;;;5033014;28;20089;-67
2024/03/14 05:10:05;;;;;;;97.13;65.93;;;;;;;;;;5033008;28;20414;-67
2024/03/14 05:12:31;;;;;;;91.38;62.58;;;;;;;;;;5032566;28;20033;-65
2024/03/14 05:14:57;;;;;;;99.45;64.32;;;;;;;;;;5035684;28;20030;-66
2024/03/14 05:17:24;;;;;;;97.78;64.15;;;;;;;;;;5036233;28;20036;-66
2024/03/14 05:19:50;;;;;;;92.70;61.78;;;;;;;;;;5035707;28;20464;-65
2024/03/14 05:22:17;;;;;;;97.95;65.07;;;;;;;;;;5015109;28;20036;-68
2024/03/14 05:24:43;;;;;;;97.10;61.88;;;;;;;;;;5032920;28;20432;-67
2024/03/14 05:27:09;;;;;;;96.03;62.10;;;;;;;;;;5032873;28;20027;-67
2024/03/14 05:29:36;;;;;;;91.00;60.55;;;;;;;;;;5032873;28;20095;-67
2024/03/14 05:32:02;;;;;;;96.43;60.38;;;;;;;;;;5014188;28;20367;-68
2024/03/14 05:34:28;;;;;;;93.53;61.45;;;;;;;;;;5032138;28;20033;-68
2024/03/14 05:36:55;;;;;;;89.10;61.75;;;;;;;;;;5032391;28;20405;-70
2024/03/14 05:39:21;;;;;;;92.18;60.97;;;;;;;;;;5032634;28;20028;-69
2024/03/14 05:41:50;;;;;;;90.35;58.55;;;;;;;;;;5031626;28;20032;-69
2024/03/14 05:44:16;;;;;;;91.47;58.92;;;;;;;;;;5032592;28;20151;-69
2024/03/14 05:46:42;;;;;;;83.97;57.00;;;;;;;;;;5032484;28;20248;-70
2024/03/14 05:49:08;;;;;;;90.70;56.70;;;;;;;;;;5030738;28;20142;-71
2024/03/14 05:51:35;;;;;;;84.60;55.97;;;;;;;;;;5031343;28;20076;-69
2024/03/14 05:54:01;;;;;;;81.65;54.30;;;;;;;;;;5032121;28;20399;-67
2024/03/14 05:56:27;;;;;;;86.05;54.47;;;;;;;;;;5032081;28;20037;-67
2024/03/14 05:58:53;;;;;;;85.25;54.55;;;;;;;;;;5031869;28;20021;-67
2024/03/14 06:01:19;;;;;;;89.72;56.08;;;;;;;;;;5031321;28;20363;-67
2024/03/14 06:03:46;;;;;;;87.82;55.42;;;;;;;;;;5031007;28;20025;-67
2024/03/14 06:06:13;;;;;;;88.00;54.83;;;;;;;;;;5032376;28;20032;-66
2024/03/14 06:08:42;;;;;;;97.78;55.97;;;;;;;;;;5032432;28;20056;-68
2024/03/14 06:11:08;;;;;;;81.35;54.35;;;;;;;;;;5031607;28;20140;-68
2024/03/14 06:13:34;;;;;;;83.28;53.38;;;;;;;;;;5032327;28;20040;-65
2024/03/14 06:16:00;;;;;;;94.80;51.47;;;;;;;;;;5032288;28;20018;-66
2024/03/14 06:18:26;;;;;;;80.55;49.78;;;;;;;;;;5032007;28;20032;-65
2024/03/14 06:20:54;;;;;;;85.25;51.30;;;;;;;;;;5031439;28;20021;-65
2024/03/14 06:23:20;;;;;;;78.30;49.95;;;;;;;;;;5031738;28;20060;-66
2024/03/14 06:25:46;;;;;;;75.90;48.28;;;;;;;;;;5031505;28;20025;-66
2024/03/14 06:28:12;;;;;;;90.28;48.08;;;;;;;;;;5031722;28;20048;-66
2024/03/14 06:30:38;;;;;;;85.57;49.42;;;;;;;;;;5031351;28;20389;-67
2024/03/14 06:33:04;;;;;;;85.13;47.70;;;;;;;;;;5030982;28;20025;-66
2024/03/14 06:35:31;;;;;;;86.13;49.53;;;;;;;;;;5031403;28;20144;-66
2024/03/14 06:37:59;;;;;;;84.68;47.13;;;;;;;;;;5031025;28;20029;-70
2024/03/14 06:40:25;;;;;;;29.85;19.40;;;;;;;;;;5031169;28;20033;-65
2024/03/14 06:42:51;;;;;;;26.80;13.70;;;;;;;;;;5030972;28;20485;-65
2024/03/14 06:45:17;;;;;;;14.88;9.25;;;;;;;;;;5031324;28;20029;-67
2024/03/14 06:47:43;;;;;;;11.15;7.50;;;;;;;;;;5029844;28;20416;-66
2024/03/14 06:50:09;;;;;;;12.23;7.20;;;;;;;;;;5029789;28;20028;-66
2024/03/14 06:52:37;;;;;;;9.35;7.22;;;;;;;;;;5030131;28;20029;-66
2024/03/14 06:55:04;;;;;;;13.23;6.53;;;;;;;;;;5031224;28;20025;-63
2024/03/14 06:57:30;;;;;;;10.40;6.03;;;;;;;;;;5030927;28;20052;-65
2024/03/14 06:59:56;;;;;;;11.02;6.72;;;;;;;;;;5030971;28;20060;-65
2024/03/14 07:02:23;;;;;;;9.23;6.13;;;;;;;;;;5030162;28;20067;-66
2024/03/14 07:04:51;;;;;;;6.80;5.75;;;;;;;;;;5031189;28;20074;-66
2024/03/14 07:07:18;;;;;;;10.93;6.30;;;;;;;;;;5030252;28;20465;-66
2024/03/14 07:09:45;;;;;;;7.80;6.00;;;;;;;;;;5030695;28;20018;-68
2024/03/14 07:12:11;;;;;;;10.13;6.43;;;;;;;;;;5029871;28;20477;-66
2024/03/14 07:14:37;;;;;;;13.23;7.22;;;;;;;;;;5030590;28;20478;-66
2024/03/14 07:17:03;;;;;;;14.38;7.97;;;;;;;;;;5030550;28;20025;-66
2024/03/14 07:19:29;;;;;;;44.85;23.10;;;;;;;;;;5024426;28;20021;-66
2024/03/14 07:21:56;;;;;;;55.20;27.10;;;;;;;;;;5010006;28;20375;-66
2024/03/14 07:24:23;;;;;;;51.03;29.08;;;;;;;;;;5011221;28;20062;-66
2024/03/14 07:26:49;;;;;;;47.65;26.15;;;;;;;;;;5010934;28;20513;-66
2024/03/14 07:29:15;;;;;;;47.22;27.70;;;;;;;;;;5010954;28;20399;-65
2024/03/14 07:31:45;;;;;;;49.30;29.00;;;;;;;;;;5010299;28;20030;-66
2024/03/14 07:34:11;;;;;;;42.75;25.38;;;;;;;;;;5011128;28;20423;-66
2024/03/14 07:36:39;;;;;;;66.10;29.70;;;;;;;;;;5011009;28;20041;-66
2024/03/14 07:39:10;;;;;;;66.32;30.30;;;;;;;;;;5010735;28;20076;-66
2024/03/14 07:41:41;;;;;;;59.78;30.70;;;;;;;;;;5003058;28;20033;-66
2024/03/14 07:44:07;;;;;;;58.78;27.48;;;;;;;;;;5027723;28;20036;-67
2024/03/14 07:46:33;;;;;;;56.72;27.52;;;;;;;;;;5009933;28;20034;-68
2024/03/14 07:48:59;;;;;;;49.30;26.67;;;;;;;;;;5009760;28;20400;-68
2024/03/14 07:51:27;;;;;;;49.95;26.52;;;;;;;;;;5010581;28;20425;-68
2024/03/14 07:53:54;;;;;;;44.95;25.95;;;;;;;;;;5011219;28;20026;-69
2024/03/14 07:56:21;;;;;;;51.22;26.67;;;;;;;;;;5020390;28;20096;-70
2024/03/14 07:58:47;;;;;;;48.60;25.92;;;;;;;;;;5030501;28;20040;-69
2024/03/14 08:01:16;;;;;;;48.15;25.23;;;;;;;;;;5029612;28;20025;-68
2024/03/14 08:03:43;;;;;;;57.80;25.85;;;;;;;;;;5030051;28;20112;-69
2024/03/14 08:06:10;;;;;;;47.47;25.40;;;;;;;;;;5030145;28;20561;-68
2024/03/14 08:08:37;;;;;;;47.33;25.05;;;;;;;;;;5030675;28;20091;-70
2024/03/14 08:11:03;;;;;;;47.50;24.80;;;;;;;;;;5030170;28;20036;-68
2024/03/14 08:13:31;;;;;;;49.05;24.92;;;;;;;;;;5030784;28;20547;-68
2024/03/14 08:18:42;;;;;;;42.70;23.50;;;;;;;;;;5031343;28;20115;-68
2024/03/14 08:21:12;;;;;;;43.53;23.80;;;;;;;;;;5033289;28;20026;-69
2024/03/14 08:23:41;;;;;;;38.45;23.40;;;;;;;;;;5034716;28;20555;-69
2024/03/14 08:26:08;;;;;;;51.63;25.15;;;;;;;;;;5034822;28;20029;-67
2024/03/14 08:28:38;;;;;;;38.63;22.85;;;;;;;;;;5034777;28;20512;-67
2024/03/14 08:31:06;;;;;;;37.17;22.20;;;;;;;;;;5034440;28;20151;-67
2024/03/14 08:33:35;;;;;;;41.67;22.55;;;;;;;;;;5034772;28;20440;-69
2024/03/14 08:36:02;;;;;;;38.78;22.35;;;;;;;;;;5034610;28;20444;-69
2024/03/14 08:38:29;;;;;;;35.30;21.52;;;;;;;;;;5034517;28;20029;-67
2024/03/14 08:40:57;;;;;;;33.75;20.75;;;;;;;;;;5034316;28;20370;-68
2024/03/14 08:43:23;;;;;;;34.15;21.27;;;;;;;;;;5034452;28;20030;-67
2024/03/14 08:45:52;;;;;;;38.45;21.67;;;;;;;;;;5034331;28;20022;-68
2024/03/14 08:48:18;;;;;;;32.75;20.73;;;;;;;;;;5034619;28;20370;-67
2024/03/14 08:50:44;;;;;;;37.75;21.77;;;;;;;;;;5034269;28;20100;-67
2024/03/14 08:53:12;;;;;;;32.92;20.08;;;;;;;;;;5033853;28;20021;-68
2024/03/14 08:55:45;;;;;;;35.30;20.42;;;;;;;;;;5033441;28;20021;-68
2024/03/14 08:58:12;;;;;;;36.88;21.02;;;;;;;;;;5034532;28;20109;-67
2024/03/14 09:00:39;;;;;;;34.65;19.92;;;;;;;;;;5034229;28;20026;-68
2024/03/14 09:03:05;;;;;;;34.53;20.17;;;;;;;;;;5016029;28;20037;-67
2024/03/14 09:05:32;;;;;;;30.63;19.35;;;;;;;;;;5034286;28;20032;-67
2024/03/14 09:07:59;;;;;;;32.58;19.77;;;;;;;;;;5034127;28;20075;-67
2024/03/14 09:10:25;;;;;;;33.38;19.67;;;;;;;;;;5034148;28;20547;-67
2024/03/14 09:12:57;;;;;;;30.80;18.67;;;;;;;;;;5033947;28;20034;-67
2024/03/14 09:15:24;;;;;;;35.50;18.27;;;;;;;;;;5035475;28;20035;-67
2024/03/14 09:17:50;;;;;;;36.40;19.45;;;;;;;;;;5017366;28;20114;-67
2024/03/14 09:20:16;;;;;;;30.02;18.48;;;;;;;;;;5030575;28;20501;-67
2024/03/14 09:22:53;;;;;;;29.45;17.95;;;;;;;;;;5016516;28;20037;-69
2024/03/14 09:25:20;;;;;;;30.73;17.30;;;;;;;;;;5017905;28;20428;-68
2024/03/14 09:27:46;;;;;;;27.73;17.45;;;;;;;;;;5016475;28;20054;-68
2024/03/14 09:30:12;;;;;;;30.52;17.55;;;;;;;;;;5014012;28;20057;-67
2024/03/14 09:32:42;;;;;;;30.25;18.10;;;;;;;;;;5016452;28;20025;-68
2024/03/14 09:35:11;;;;;;;29.92;17.95;;;;;;;;;;5033807;28;20504;-69
2024/03/14 09:37:38;;;;;;;26.95;16.52;;;;;;;;;;5033893;28;20056;-68
2024/03/14 09:40:06;;;;;;;28.02;17.38;;;;;;;;;;5033737;28;20025;-67
2024/03/14 09:42:33;;;;;;;25.40;16.88;;;;;;;;;;5033057;28;20033;-70
2024/03/14 09:45:02;;;;;;;27.13;16.08;;;;;;;;;;5033980;28;20040;-68
2024/03/14 09:47:38;;;;;;;28.48;15.98;;;;;;;;;;5033498;28;20447;-68
2024/03/14 09:50:05;;;;;;;27.42;16.70;;;;;;;;;;5033335;28;20031;-68
2024/03/14 09:52:35;;;;;;;27.40;16.67;;;;;;;;;;5032943;28;20037;-69
2024/03/14 09:55:02;;;;;;;28.75;16.55;;;;;;;;;;5033751;28;20021;-68
2024/03/14 09:57:31;;;;;;;27.10;16.35;;;;;;;;;;5033698;28;20033;-68
2024/03/14 09:59:57;;;;;;;26.27;15.48;;;;;;;;;;5034040;28;20125;-69
2024/03/14 10:02:26;;;;;;;28.80;16.50;;;;;;;;;;5033775;28;20029;-69
2024/03/14 10:04:52;;;;;;;24.67;15.93;;;;;;;;;;5039386;28;20072;-69
2024/03/14 10:07:19;;;;;;;24.45;15.82;;;;;;;;;;5035563;28;20052;-68
2024/03/14 10:09:45;;;;;;;27.40;15.07;;;;;;;;;;5035278;28;20026;-69
2024/03/14 10:12:12;;;;;;;25.33;15.60;;;;;;;;;;5032418;28;20048;-68
2024/03/14 10:14:40;;;;;;;25.15;15.02;;;;;;;;;;5033267;28;20057;-68
2024/03/14 10:17:07;;;;;;;23.75;15.13;;;;;;;;;;5015235;28;20116;-69
2024/03/14 10:19:35;;;;;;;23.42;14.75;;;;;;;;;;5032924;28;20034;-68
2024/03/14 10:22:02;;;;;;;23.48;13.82;;;;;;;;;;5032069;28;20109;-68
2024/03/14 10:24:30;;;;;;;25.25;15.02;;;;;;;;;;5031645;28;20063;-69
2024/03/14 10:26:59;;;;;;;24.13;14.43;;;;;;;;;;5032623;28;20021;-68
2024/03/14 10:29:32;;;;;;;23.52;14.05;;;;;;;;;;5032522;28;20029;-67
2024/03/14 10:31:58;;;;;;;21.88;13.45;;;;;;;;;;5031807;28;20028;-68
2024/03/14 10:34:24;;;;;;;19.98;13.45;;;;;;;;;;5032432;28;20056;-68
2024/03/14 10:36:54;;;;;;;22.63;13.25;;;;;;;;;;5028749;28;20022;-68
2024/03/14 10:39:23;;;;;;;23.60;13.50;;;;;;;;;;5012857;28;20030;-69
2024/03/14 10:41:49;;;;;;;22.10;13.63;;;;;;;;;;5011691;28;20022;-68
2024/03/14 10:44:21;;;;;;;19.88;13.20;;;;;;;;;;5012079;28;20605;-67
2024/03/14 10:46:50;;;;;;;20.60;12.77;;;;;;;;;;5012406;28;20037;-69
2024/03/14 10:49:19;;;;;;;20.20;12.32;;;;;;;;;;5012348;28;20489;-68
2024/03/14 10:51:46;;;;;;;20.83;14.02;;;;;;;;;;5011989;28;20041;-68
2024/03/14 10:54:13;;;;;;;18.58;12.23;;;;;;;;;;5012567;28;20029;-68
2024/03/14 10:56:41;;;;;;;21.65;12.70;;;;;;;;;;5012759;28;20050;-68
2024/03/14 10:59:09;;;;;;;18.88;11.43;;;;;;;;;;5012493;28;20088;-68
2024/03/14 11:01:36;;;;;;;18.17;12.40;;;;;;;;;;5011447;28;20029;-67
2024/03/14 11:04:02;;;;;;;27.58;13.15;;;;;;;;;;5012145;28;20470;-68
2024/03/14 11:06:33;;;;;;;19.98;12.27;;;;;;;;;;5012267;28;20656;-68
2024/03/14 11:09:03;;;;;;;18.38;11.50;;;;;;;;;;5012369;28;20030;-68
2024/03/14 11:11:29;;;;;;;18.65;12.32;;;;;;;;;;5011605;28;20057;-70
2024/03/14 11:13:56;;;;;;;16.63;10.90;;;;;;;;;;5012206;28;20029;-68
2024/03/14 11:16:24;;;;;;;20.08;11.10;;;;;;;;;;5012102;28;20026;-68
2024/03/14 11:18:53;;;;;;;17.50;10.85;;;;;;;;;;5012224;28;20486;-68
2024/03/14 11:21:33;;;;;;;18.50;11.73;;;;;;;;;;5011609;28;20030;-68
2024/03/14 11:24:09;;;;;;;16.00;10.57;;;;;;;;;;5012243;28;20061;-69
2024/03/14 11:26:37;;;;;;;17.27;11.15;;;;;;;;;;5012030;28;20030;-70
2024/03/14 11:29:04;;;;;;;17.52;10.90;;;;;;;;;;5013274;28;20026;-70
2024/03/14 11:31:40;;;;;;;17.05;10.07;;;;;;;;;;4994338;28;20022;-68
2024/03/14 11:34:14;;;;;;;17.52;11.25;;;;;;;;;;5012385;28;20113;-68
2024/03/14 11:36:40;;;;;;;14.82;10.73;;;;;;;;;;5012057;28;20033;-70
2024/03/14 11:39:25;;;;;;;15.32;9.80;;;;;;;;;;5011214;28;20052;-69
2024/03/14 11:41:51;;;;;;;14.82;10.48;;;;;;;;;;5011208;28;20026;-68
2024/03/14 11:44:20;;;;;;;14.07;9.85;;;;;;;;;;5011749;28;20036;-68
2024/03/14 11:46:49;;;;;;;16.33;9.88;;;;;;;;;;5011254;28;20034;-70
2024/03/14 11:49:39;;;;;;;15.20;9.68;;;;;;;;;;5011430;28;20022;-68
2024/03/14 11:52:05;;;;;;;15.80;9.35;;;;;;;;;;5011136;28;20029;-69
2024/03/14 11:54:31;;;;;;;16.27;9.90;;;;;;;;;;5011659;28;20429;-69
2024/03/14 11:57:00;;;;;;;14.60;9.60;;;;;;;;;;5011518;28;20492;-68
2024/03/14 11:59:26;;;;;;;15.77;10.15;;;;;;;;;;5011719;28;20045;-68
2024/03/14 12:01:55;;;;;;;15.95;9.90;;;;;;;;;;5010625;28;20393;-68
2024/03/14 12:04:21;;;;;;;14.15;9.93;;;;;;;;;;4993891;28;20026;-68
2024/03/14 12:06:47;;;;;;;16.58;10.38;;;;;;;;;;5011593;28;20025;-68
2024/03/14 12:09:21;;;;;;;13.63;8.68;;;;;;;;;;5011248;28;20490;-68
2024/03/14 12:11:48;;;;;;;16.40;10.20;;;;;;;;;;5010518;28;20547;-68
2024/03/14 12:14:15;;;;;;;14.25;9.10;;;;;;;;;;5011527;28;20026;-69
2024/03/14 12:16:47;;;;;;;15.20;8.80;;;;;;;;;;5011335;28;20041;-69
2024/03/14 12:19:17;;;;;;;15.93;8.75;;;;;;;;;;5011516;28;20397;-68
2024/03/14 12:21:43;;;;;;;11.02;7.85;;;;;;;;;;5010613;28;20107;-69
2024/03/14 12:24:15;;;;;;;11.25;7.65;;;;;;;;;;5011366;28;20065;-68
2024/03/14 12:26:42;;;;;;;12.98;8.20;;;;;;;;;;5011092;28;20030;-68
2024/03/14 12:29:09;;;;;;;12.35;8.07;;;;;;;;;;5011179;28;20029;-66
2024/03/14 12:31:35;;;;;;;11.60;7.47;;;;;;;;;;5010592;28;20053;-67
2024/03/14 12:34:03;;;;;;;12.07;8.60;;;;;;;;;;5011497;28;20440;-67
2024/03/14 12:36:29;;;;;;;14.77;8.88;;;;;;;;;;5011108;28;20026;-70
2024/03/14 12:38:56;;;;;;;11.88;7.53;;;;;;;;;;5010244;28;20109;-69
2024/03/14 12:41:23;;;;;;;13.32;8.57;;;;;;;;;;5010497;28;20028;-67
2024/03/14 12:43:51;;;;;;;13.48;8.07;;;;;;;;;;5011083;28;20022;-69
2024/03/14 12:46:19;;;;;;;12.05;7.97;;;;;;;;;;5010884;28;20411;-67
2024/03/14 12:48:46;;;;;;;10.48;7.68;;;;;;;;;;5010969;28;20105;-69
2024/03/14 12:51:13;;;;;;;12.98;8.15;;;;;;;;;;5010447;28;20101;-68
2024/03/14 12:53:42;;;;;;;12.20;7.75;;;;;;;;;;5011036;28;20026;-67
2024/03/14 12:56:08;;;;;;;12.52;7.60;;;;;;;;;;5021456;28;20167;-66
2024/03/14 12:58:35;;;;;;;13.95;7.90;;;;;;;;;;5030710;28;20032;-67
2024/03/14 13:01:01;;;;;;;15.32;8.27;;;;;;;;;;5010270;28;20041;-67
2024/03/14 13:03:30;;;;;;;11.85;7.78;;;;;;;;;;5010767;28;20033;-67
2024/03/14 13:05:57;;;;;;;22.15;8.52;;;;;;;;;;5030702;28;20099;-67
2024/03/14 13:08:26;;;;;;;14.27;7.95;;;;;;;;;;5034161;28;20051;-69
2024/03/14 13:11:08;;;;;;;11.88;7.65;;;;;;;;;;5033894;28;20109;-68
2024/03/14 13:13:35;;;;;;;14.70;8.18;;;;;;;;;;5034405;28;20024;-67
2024/03/14 13:16:29;;;;;;;12.98;7.78;;;;;;;;;;5023666;28;20474;-68
2024/03/14 13:18:55;;;;;;;16.70;7.18;;;;;;;;;;5005610;28;20037;-67
2024/03/14 13:21:25;;;;;;;12.20;8.25;;;;;;;;;;5013678;28;20029;-68
2024/03/14 13:23:51;;;;;;;13.52;6.93;;;;;;;;;;5020672;28;20517;-69
2024/03/14 13:26:23;;;;;;;13.15;6.63;;;;;;;;;;5037448;28;20053;-68
2024/03/14 13:28:49;;;;;;;14.25;8.23;;;;;;;;;;5037326;28;20029;-68
2024/03/14 13:31:17;;;;;;;13.00;6.80;;;;;;;;;;5020148;28;20760;-67
2024/03/14 13:33:44;;;;;;;15.13;6.30;;;;;;;;;;5013978;28;20108;-68
2024/03/14 13:36:11;;;;;;;11.18;6.80;;;;;;;;;;5013156;28;20049;-67
2024/03/14 13:38:37;;;;;;;12.85;6.78;;;;;;;;;;5013588;28;20045;-69
2024/03/14 13:41:03;;;;;;;11.70;6.70;;;;;;;;;;5012190;28;20033;-68
2024/03/14 13:43:32;;;;;;;14.07;6.68;;;;;;;;;;5013806;28;20049;-68
2024/03/14 13:46:01;;;;;;;15.90;6.60;;;;;;;;;;5014559;28;20018;-66
2024/03/14 13:48:31;;;;;;;11.65;7.20;;;;;;;;;;5014213;28;20029;-67
2024/03/14 13:50:57;;;;;;;13.40;6.53;;;;;;;;;;5013291;28;20026;-66
2024/03/14 13:53:25;;;;;;;12.30;6.80;;;;;;;;;;5013739;28;20409;-66
2024/03/14 13:55:51;;;;;;;12.27;6.75;;;;;;;;;;5013564;28;20386;-66
2024/03/14 13:58:21;;;;;;;11.55;5.93;;;;;;;;;;5013868;28;20044;-66
2024/03/14 14:00:50;;;;;;;9.00;6.20;;;;;;;;;;5013216;28;20018;-66
2024/03/14 14:03:20;;;;;;;9.65;5.80;;;;;;;;;;5013177;28;20064;-66
2024/03/14 14:05:48;;;;;;;14.63;6.63;;;;;;;;;;5013301;28;20071;-66
2024/03/14 14:08:14;;;;;;;10.80;6.32;;;;;;;;;;5013151;28;20018;-67
2024/03/14 14:10:40;;;;;;;11.77;5.22;;;;;;;;;;5012842;28;20026;-68
2024/03/14 14:13:06;;;;;;;9.23;4.70;;;;;;;;;;5012247;28;20022;-67
2024/03/14 14:15:35;;;;;;;10.20;5.63;;;;;;;;;;4994827;28;20105;-67
2024/03/14 14:18:11;;;;;;;9.13;4.82;;;;;;;;;;5011235;28;20026;-66
2024/03/14 14:20:40;;;;;;;7.40;5.70;;;;;;;;;;5012009;28;20026;-67